Weather reports worldwide

Advertisment
Madrid, Spain (8222): temperature & dewpoint: 13.09.2017 13:00:00 - 19.09.2017 13:00:00 (CEST)Madrid, Spain (8222): wind speed & gusts: 13.09.2017 13:00:00 - 19.09.2017 13:00:00 (CEST)Madrid, Spain (8222): wind direction: 13.09.2017 13:00:00 - 19.09.2017 13:00:00 (CEST)Madrid, Spain (8222): reduced air pressure: 13.09.2017 13:00:00 - 19.09.2017 13:00:00 (CEST)Madrid, Spain (8222): precipitation: 13.09.2017 13:00:00 - 19.09.2017 13:00:00 (CEST)
Date & Time tt [°C] td [°C] ff [km/h] ff [kn] fx [km/h] fx [kn] dd ppp [hPa] rr [mm]
19.09.2017 13:00:00 21,7 10,5 2 1 13 7 E 1020,6 0,0
19.09.2017 12:00:00 20,0 10,4 2 1 11 6 E 1021,3 0,0
19.09.2017 11:00:00 17,4 9,6 4 2 9 5 ENE 1021,6 0,0
19.09.2017 10:00:00 15,5 8,7 4 2 8 5 E 1021,6 0,0
19.09.2017 09:00:00 14,2 7,7 3 2 16 8 NE 1021,5 0,0
19.09.2017 08:00:00 - - - - - - - - -
19.09.2017 07:00:00 13,3 6,7 4 2 13 7 NE 1020,8 0,0
19.09.2017 06:00:00 14,2 6,5 4 2 9 5 NE 1020,7 0,0
19.09.2017 05:00:00 13,9 7,1 0 0 2 1 E 1020,6 0,0
19.09.2017 04:00:00 14,3 6,8 0 0 2 1 SW 1020,7 0,0
19.09.2017 03:00:00 14,9 7,1 0 0 4 2 NNE 1020,7 0,0
19.09.2017 02:00:00 15,7 6,7 0 0 5 3 ESE 1020,1 -
19.09.2017 01:00:00 16,1 6,8 1 1 5 3 WSW 1020,2 0,0
19.09.2017 00:00:00 16,9 7,0 0 0 4 2 N 1019,9 0,0
18.09.2017 23:00:00 17,4 6,5 3 1 7 4 NNW 1019,8 0,0
18.09.2017 22:00:00 18,5 7,0 0 0 10 5 WNW 1019,2 0,0
18.09.2017 21:00:00 20,2 7,6 5 3 24 13 NNW 1018,2 0,0
18.09.2017 20:00:00 21,3 7,8 10 6 31 17 NNW 1017,2 -
18.09.2017 19:00:00 22,0 8,5 9 5 29 16 NW 1016,5 0,0
18.09.2017 18:00:00 22,6 9,0 12 6 34 19 NW 1015,9 0,0
18.09.2017 17:00:00 22,6 9,0 12 7 31 17 NW 1015,9 0,0
18.09.2017 16:00:00 22,7 9,4 10 5 35 19 NW 1015,9 0,0
18.09.2017 15:00:00 23,0 10,0 15 8 37 20 WNW 1016,0 0,0
18.09.2017 14:00:00 22,4 9,9 13 7 29 16 WNW 1016,0 -
18.09.2017 13:00:00 22,0 10,8 11 6 32 17 WNW 1015,9 0,0
18.09.2017 12:00:00 19,8 9,9 11 6 31 17 NW 1016,5 0,0
18.09.2017 11:00:00 18,5 9,3 10 6 32 17 WNW 1016,5 0,0
18.09.2017 10:00:00 16,3 7,6 8 4 22 12 NNW 1016,4 0,0
18.09.2017 09:00:00 15,2 6,7 5 3 13 7 WNW 1016,5 0,0
18.09.2017 08:00:00 14,8 5,8 6 3 24 13 N 1016,3 -
18.09.2017 07:00:00 13,8 4,3 6 3 15 8 W 1015,5 0,0
18.09.2017 06:00:00 13,4 3,2 5 3 12 7 W 1015,9 0,0
18.09.2017 05:00:00 14,2 3,6 2 1 5 3 W 1015,5 0,0
18.09.2017 04:00:00 15,2 3,6 3 1 12 7 WNW 1015,4 0,0
18.09.2017 03:00:00 15,5 3,2 4 2 10 5 WNW 1015,7 0,0
18.09.2017 02:00:00 16,3 3,4 3 2 10 5 NW 1015,3 -
18.09.2017 01:00:00 16,7 3,8 3 2 13 7 NW 1015,7 0,0
18.09.2017 00:00:00 18,1 3,6 5 3 16 9 NW 1015,8 0,0
17.09.2017 23:00:00 18,3 4,1 5 3 13 7 NW 1015,4 0,0
17.09.2017 22:00:00 19,4 4,3 5 3 15 8 WNW 1014,8 0,0
17.09.2017 21:00:00 20,6 4,6 4 2 15 8 SW 1013,7 0,0
17.09.2017 20:00:00 22,2 5,6 5 3 19 10 WSW 1013,6 -
17.09.2017 19:00:00 23,3 5,6 6 4 21 11 W 1013,2 0,0
17.09.2017 18:00:00 24,1 6,4 5 3 24 13 W 1013,0 0,0
17.09.2017 17:00:00 24,1 6,4 8 4 27 15 SW 1013,4 0,0
17.09.2017 16:00:00 23,4 6,7 5 3 27 14 SW 1014,2 0,0
17.09.2017 15:00:00 23,4 6,7 6 4 22 12 SW 1013,3 0,0
17.09.2017 14:00:00 21,3 6,4 2 1 18 10 SW 1015,4 -
17.09.2017 13:00:00 20,1 5,8 6 3 14 8 SSW 1016,3 0,0
17.09.2017 12:00:00 18,5 5,6 3 2 9 5 SE 1016,8 0,0
17.09.2017 11:00:00 15,7 5,0 3 2 9 5 ESE 1017,7 0,0
17.09.2017 10:00:00 13,3 3,6 4 2 10 6 E 1017,7 0,0
17.09.2017 09:00:00 11,5 2,3 3 2 11 6 NE 1017,7 0,0
17.09.2017 08:00:00 - - - - - - - - -
17.09.2017 07:00:00 11,1 2,1 1 1 5 3 ENE 1016,9 0,0
17.09.2017 06:00:00 12,4 2,3 2 1 8 4 NE 1016,3 0,0
17.09.2017 05:00:00 12,1 2,9 2 1 4 2 NE 1016,5 0,0
17.09.2017 04:00:00 12,6 2,5 1 1 4 2 ENE 1016,3 0,0
17.09.2017 03:00:00 13,4 2,9 2 1 6 4 ESE 1016,1 0,0
17.09.2017 02:00:00 14,4 2,9 2 1 11 6 E 1016,1 -
17.09.2017 01:00:00 15,6 3,0 4 2 16 9 NE 1015,6 0,0
17.09.2017 00:00:00 15,8 2,9 5 3 13 7 NE 1015,6 0,0
16.09.2017 23:00:00 16,4 3,0 7 4 14 7 NE 1014,8 0,0
16.09.2017 22:00:00 16,4 2,7 4 2 13 7 N 1014,6 0,0
16.09.2017 21:00:00 17,2 3,0 6 4 14 8 N 1013,6 0,0
16.09.2017 20:00:00 18,6 3,6 5 3 19 11 NNW 1012,9 -
16.09.2017 19:00:00 19,7 4,6 7 4 21 12 NW 1012,3 0,0
16.09.2017 18:00:00 20,3 5,1 8 4 29 15 NW 1011,6 0,0
16.09.2017 17:00:00 20,4 5,1 8 4 26 14 WNW 1010,7 0,0
16.09.2017 16:00:00 21,0 6,1 9 5 27 14 W 1010,4 0,0
16.09.2017 15:00:00 19,7 6,4 4 2 15 8 NNW 1012,1 0,0
16.09.2017 14:00:00 18,6 6,1 2 1 11 6 ESE 1012,9 -
16.09.2017 13:00:00 18,1 6,5 3 2 15 8 NE 1013,2 0,0
16.09.2017 12:00:00 16,3 6,4 5 3 14 8 E 1014,0 0,0
16.09.2017 11:00:00 13,2 5,1 6 3 18 10 ENE 1014,9 0,0
16.09.2017 10:00:00 11,8 4,5 7 4 23 12 NE 1015,1 0,0
16.09.2017 09:00:00 11,0 3,8 8 5 24 13 NE 1014,5 0,0
16.09.2017 08:00:00 - - - - - - - - -
16.09.2017 07:00:00 11,3 4,1 7 4 21 11 NNE 1013,7 0,0
16.09.2017 06:00:00 11,4 3,9 7 4 21 12 NE 1013,7 0,0
16.09.2017 05:00:00 11,9 3,9 9 5 20 11 NNE 1013,7 0,0
16.09.2017 04:00:00 12,7 4,5 4 2 24 13 NE 1013,7 0,0
16.09.2017 03:00:00 13,4 4,5 7 4 26 14 ENE 1013,8 0,0
16.09.2017 02:00:00 14,0 4,8 8 4 27 15 NE 1013,4 -
16.09.2017 01:00:00 15,0 5,5 11 6 24 13 NE 1013,4 0,0
16.09.2017 00:00:00 15,9 5,8 7 4 24 13 NE 1013,0 0,0
15.09.2017 23:00:00 16,9 4,8 11 6 39 21 NE 1012,3 0,0
15.09.2017 22:00:00 17,8 4,6 11 6 32 17 NNE 1012,0 0,0
15.09.2017 21:00:00 18,8 5,0 14 8 34 19 NNE 1010,8 0,0
15.09.2017 20:00:00 19,7 5,3 12 7 32 17 NNE 1009,5 -
15.09.2017 19:00:00 20,7 5,9 8 4 24 13 NNE 1010,0 0,0
15.09.2017 18:00:00 21,5 7,7 7 4 22 12 N 1009,3 0,0
15.09.2017 17:00:00 21,2 7,4 7 4 24 13 N 1009,6 0,0
15.09.2017 16:00:00 22,9 9,3 5 3 29 15 NE 1009,3 0,0
15.09.2017 15:00:00 21,3 7,8 8 4 29 16 NNE 1010,3 0,0
15.09.2017 14:00:00 20,5 8,5 11 6 35 19 NE 1010,0 -
15.09.2017 13:00:00 20,0 8,4 13 7 38 21 NE 1010,8 0,0
15.09.2017 12:00:00 18,5 7,8 16 8 42 23 NE 1011,6 0,0
15.09.2017 11:00:00 16,6 7,0 18 10 39 21 NE 1012,0 0,0
15.09.2017 10:00:00 14,9 6,2 20 11 43 23 NE 1011,8 0,0
15.09.2017 09:00:00 14,4 6,2 11 6 40 22 NE 1011,7 0,0
15.09.2017 08:00:00 14,4 7,0 11 6 35 19 NNE 1011,6 -
15.09.2017 07:00:00 14,7 7,3 14 8 32 17 NNE 1011,3 0,0
15.09.2017 06:00:00 14,7 7,3 14 7 33 18 NE 1011,3 0,0
15.09.2017 05:00:00 15,4 7,4 13 7 42 23 NE 1011,8 0,0
15.09.2017 04:00:00 16,0 7,4 11 6 33 18 NE 1012,0 0,0
15.09.2017 03:00:00 16,3 8,0 15 8 40 22 NNE 1012,3 0,0
15.09.2017 02:00:00 17,0 8,1 13 7 35 19 NE 1012,5 -
15.09.2017 01:00:00 18,3 8,8 9 5 35 19 NNE 1012,9 0,0
15.09.2017 00:00:00 19,9 9,2 16 8 31 17 NE 1012,2 0,0
14.09.2017 23:00:00 22,8 10,5 12 6 26 14 NE 1011,9 0,0
14.09.2017 22:00:00 24,5 11,1 2 1 13 7 NNE 1011,5 0,0
14.09.2017 21:00:00 25,1 11,3 5 3 15 8 NNW 1011,1 0,0
14.09.2017 20:00:00 26,6 11,1 5 3 21 11 WNW 1010,9 -
14.09.2017 19:00:00 27,8 11,8 10 5 26 14 WNW 1010,9 0,0
14.09.2017 18:00:00 28,4 11,4 9 5 24 13 WNW 1011,2 0,0
14.09.2017 17:00:00 29,0 10,6 11 6 28 15 W 1011,6 0,0
14.09.2017 16:00:00 29,7 11,2 8 4 25 13 W 1012,0 0,0
14.09.2017 15:00:00 30,2 12,6 9 5 24 13 WNW 1012,7 0,0
14.09.2017 14:00:00 28,5 12,8 4 2 19 10 WSW 1013,7 -
14.09.2017 13:00:00 27,7 13,7 2 1 12 7 S 1014,9 0,0
14.09.2017 12:00:00 25,2 12,1 2 1 8 5 SE 1015,3 0,0
14.09.2017 11:00:00 22,0 11,1 1 0 6 3 SSW 1016,6 0,0
14.09.2017 10:00:00 19,9 10,3 2 1 6 3 SSW 1016,7 0,0
14.09.2017 09:00:00 19,1 9,6 4 2 8 4 E 1016,2 0,0
14.09.2017 08:00:00 18,4 9,4 1 0 10 5 NW 1016,2 -
14.09.2017 07:00:00 19,2 9,4 2 1 10 5 WNW 1016,2 0,0
14.09.2017 06:00:00 19,5 8,5 3 2 10 6 NW 1016,4 0,0
14.09.2017 05:00:00 20,2 8,3 4 2 10 5 W 1016,2 0,0
14.09.2017 04:00:00 21,0 8,3 5 3 15 8 WNW 1016,2 0,0
14.09.2017 03:00:00 21,0 8,9 2 1 8 5 NNW 1016,1 0,0
14.09.2017 02:00:00 21,6 8,8 5 3 13 7 NW 1016,4 -
14.09.2017 01:00:00 22,2 9,0 5 3 15 8 WNW 1016,5 0,0
14.09.2017 00:00:00 22,7 9,2 4 2 8 4 NW 1016,4 0,0
13.09.2017 23:00:00 23,7 9,7 2 1 9 5 SW 1015,9 0,0
13.09.2017 22:00:00 24,5 10,0 2 1 5 3 SW 1016,1 0,0
13.09.2017 21:00:00 25,7 10,3 3 2 10 6 W 1015,8 0,0
13.09.2017 20:00:00 27,7 10,9 4 2 19 10 WSW 1015,1 -
13.09.2017 19:00:00 29,2 11,7 7 4 25 13 WSW 1015,0 0,0
13.09.2017 18:00:00 29,9 12,3 6 3 22 12 WSW 1015,5 0,0
13.09.2017 17:00:00 29,6 12,1 4 2 18 10 SW 1016,2 0,0
13.09.2017 16:00:00 30,3 12,6 6 3 17 9 S 1016,7 0,0
13.09.2017 15:00:00 29,8 13,2 5 3 19 10 SW 1017,6 0,0
13.09.2017 14:00:00 27,5 11,9 5 3 11 6 SW 1018,2 -
13.09.2017 13:00:00 26,1 11,8 1 1 9 5 SE 1019,7 0,0

tt = temperature
td = dewpoint
ff = wind speed
fx = gusts
dd = wind direction
ppp = reduced air pressure
rr = precipitation

Next stations